createdAt,value
2023-04-08T00:00:29.147Z,16.10
2023-04-08T00:02:56.006Z,15.70
2023-04-08T00:05:22.921Z,16.60
2023-04-08T00:07:49.813Z,16.10
2023-04-08T00:10:16.672Z,17.00
2023-04-08T00:12:43.419Z,15.90
2023-04-08T00:15:10.478Z,17.40
2023-04-08T00:17:37.261Z,15.13
2023-04-08T00:20:05.829Z,16.47
2023-04-08T00:22:32.616Z,16.00
2023-04-08T00:24:59.333Z,16.43
2023-04-08T00:27:26.046Z,17.97
2023-04-08T00:29:53.037Z,17.00
2023-04-08T00:32:19.790Z,16.20
2023-04-08T00:34:46.539Z,15.73
2023-04-08T00:37:13.328Z,15.93
2023-04-08T00:39:40.429Z,16.80
2023-04-08T00:42:07.214Z,17.00
2023-04-08T00:44:34.113Z,17.67
2023-04-08T00:47:00.974Z,17.07
2023-04-08T00:49:27.926Z,16.97
2023-04-08T00:51:55.845Z,16.80
2023-04-08T00:54:22.879Z,16.73
2023-04-08T00:56:49.648Z,17.53
2023-04-08T00:59:18.566Z,16.73
2023-04-08T01:02:16.905Z,17.60
2023-04-08T01:04:58.256Z,16.97
2023-04-08T01:07:32.425Z,17.73
2023-04-08T01:10:07.705Z,18.23
2023-04-08T01:12:51.969Z,18.17
2023-04-08T01:15:18.990Z,18.20
2023-04-08T01:17:46.664Z,17.90
2023-04-08T01:20:15.603Z,17.30
2023-04-08T01:23:00.892Z,18.00
2023-04-08T01:25:32.268Z,18.40
2023-04-08T01:28:01.921Z,18.80
2023-04-08T01:30:30.679Z,19.07
2023-04-08T01:32:59.363Z,18.50
2023-04-08T01:35:26.930Z,19.43
2023-04-08T01:37:55.668Z,17.83
2023-04-08T01:40:22.739Z,20.30
2023-04-08T01:42:51.942Z,18.67
2023-04-08T01:45:19.063Z,19.20
2023-04-08T01:47:49.974Z,21.03
2023-04-08T01:50:18.336Z,19.20
2023-04-08T01:52:47.761Z,19.30
2023-04-08T01:55:14.872Z,18.17
2023-04-08T01:57:46.655Z,19.43
2023-04-08T02:00:15.875Z,18.80
2023-04-08T02:02:47.313Z,19.50
2023-04-08T02:05:14.630Z,18.87
2023-04-08T02:07:41.371Z,18.73
2023-04-08T02:10:08.509Z,18.70
2023-04-08T02:12:35.437Z,19.23
2023-04-08T02:15:02.248Z,19.03
2023-04-08T02:17:37.120Z,19.80
2023-04-08T02:20:07.962Z,17.77
2023-04-08T02:22:53.511Z,18.70
2023-04-08T02:25:24.334Z,18.60
2023-04-08T02:27:53.073Z,19.80
2023-04-08T02:30:21.185Z,19.10
2023-04-08T02:32:48.765Z,18.90
2023-04-08T02:35:16.548Z,19.77
2023-04-08T02:37:44.528Z,20.00
2023-04-08T02:40:27.291Z,19.50
2023-04-08T02:42:54.746Z,21.83
2023-04-08T02:45:21.692Z,19.27
2023-04-08T02:47:48.456Z,19.90
2023-04-08T02:50:15.587Z,20.90
2023-04-08T02:52:43.834Z,20.87
2023-04-08T02:55:10.865Z,19.50
2023-04-08T02:57:39.717Z,22.03
2023-04-08T03:00:07.318Z,21.20
2023-04-08T03:02:34.358Z,21.63
2023-04-08T03:05:01.266Z,22.33
2023-04-08T03:07:28.238Z,21.20
2023-04-08T03:09:55.625Z,22.20
2023-04-08T03:12:23.205Z,21.37
2023-04-08T03:14:50.546Z,23.40
2023-04-08T03:17:17.363Z,24.13
2023-04-08T03:19:44.112Z,22.90
2023-04-08T03:22:11.149Z,24.20
2023-04-08T03:24:37.868Z,23.60
2023-04-08T03:27:04.817Z,24.20
2023-04-08T03:29:31.708Z,22.63
2023-04-08T03:31:58.634Z,23.20
2023-04-08T03:34:25.425Z,22.77
2023-04-08T03:36:52.153Z,24.83
2023-04-08T03:39:19.364Z,23.47
2023-04-08T03:41:46.076Z,24.83
2023-04-08T03:44:12.743Z,23.63
2023-04-08T03:46:39.502Z,24.33
2023-04-08T03:49:07.358Z,23.03
2023-04-08T03:51:34.171Z,23.10
2023-04-08T03:54:00.910Z,23.27
2023-04-08T03:56:27.697Z,23.80
2023-04-08T03:58:54.452Z,23.27
2023-04-08T04:01:21.250Z,24.00
2023-04-08T04:03:48.084Z,23.80
2023-04-08T04:06:14.898Z,23.67
2023-04-08T04:08:41.645Z,23.30
2023-04-08T04:11:08.387Z,23.23
2023-04-08T04:13:35.096Z,25.30
2023-04-08T04:16:02.086Z,25.07
2023-04-08T04:18:28.901Z,25.03
2023-04-08T04:20:55.788Z,23.67
2023-04-08T04:23:24.377Z,25.73
2023-04-08T04:25:51.314Z,26.80
2023-04-08T04:28:18.073Z,26.00
2023-04-08T04:30:45.675Z,24.20
2023-04-08T04:33:12.456Z,26.40
2023-04-08T04:35:40.011Z,26.20
2023-04-08T04:38:12.566Z,24.00
2023-04-08T04:40:39.766Z,24.20
2023-04-08T04:43:06.454Z,25.90
2023-04-08T04:45:33.240Z,27.47
2023-04-08T04:48:00.034Z,26.90
2023-04-08T04:50:26.839Z,27.20
2023-04-08T04:52:53.550Z,28.27
2023-04-08T04:55:22.291Z,26.90
2023-04-08T04:57:49.530Z,27.40
2023-04-08T05:00:17.057Z,29.07
2023-04-08T05:02:44.100Z,28.20
2023-04-08T05:05:11.151Z,27.97
2023-04-08T05:07:38.787Z,28.30
2023-04-08T05:10:06.892Z,27.10
2023-04-08T05:12:33.692Z,26.60
2023-04-08T05:15:00.742Z,30.97
2023-04-08T05:17:27.672Z,26.67
2023-04-08T05:19:54.526Z,26.87
2023-04-08T05:22:21.356Z,26.17
2023-04-08T05:24:48.155Z,27.80
2023-04-08T05:27:14.821Z,26.83
2023-04-08T05:29:41.668Z,28.13
2023-04-08T05:32:08.439Z,27.03
2023-04-08T05:34:35.157Z,26.27
2023-04-08T05:37:01.844Z,27.90
2023-04-08T05:39:28.610Z,27.10
2023-04-08T05:41:55.527Z,27.50
2023-04-08T05:44:22.294Z,28.17
2023-04-08T05:46:49.127Z,27.47
2023-04-08T05:49:17.326Z,29.23
2023-04-08T05:51:44.019Z,28.40
2023-04-08T05:54:10.912Z,28.27
2023-04-08T05:56:37.653Z,27.70
2023-04-08T05:59:04.354Z,30.47
2023-04-08T06:01:31.246Z,29.67
2023-04-08T06:03:58.184Z,29.33
2023-04-08T06:06:26.146Z,28.90
2023-04-08T06:08:52.987Z,28.90
2023-04-08T06:11:19.835Z,30.40
2023-04-08T06:13:46.486Z,29.47
2023-04-08T06:16:19.582Z,30.17
2023-04-08T06:18:48.221Z,28.80
2023-04-08T06:21:15.761Z,26.50
2023-04-08T06:23:42.662Z,29.90
2023-04-08T06:26:09.473Z,28.50
2023-04-08T06:28:36.313Z,28.97
2023-04-08T06:31:03.223Z,26.30
2023-04-08T06:33:29.931Z,28.30
2023-04-08T06:36:04.299Z,27.37
2023-04-08T06:38:32.081Z,27.00
2023-04-08T06:41:08.134Z,25.20
2023-04-08T06:43:36.519Z,25.83
2023-04-08T06:46:03.705Z,25.17
2023-04-08T06:48:30.982Z,26.23
2023-04-08T06:50:59.251Z,24.50
2023-04-08T06:53:26.995Z,25.90
2023-04-08T06:55:53.707Z,25.80
2023-04-08T06:58:20.623Z,26.43
2023-04-08T07:00:48.307Z,26.20
2023-04-08T07:03:15.390Z,26.23
2023-04-08T07:05:42.194Z,26.47
2023-04-08T07:08:09.324Z,27.47
2023-04-08T07:10:36.248Z,26.83
2023-04-08T07:13:03.298Z,28.00
2023-04-08T07:15:30.228Z,26.23
2023-04-08T07:17:57.268Z,27.00
2023-04-08T07:20:24.231Z,26.27
2023-04-08T07:22:50.936Z,29.70
2023-04-08T07:25:17.935Z,29.43
2023-04-08T07:27:44.663Z,31.20
2023-04-08T07:30:11.851Z,31.80
2023-04-08T07:32:38.834Z,32.80
2023-04-08T07:35:05.993Z,33.80
2023-04-08T07:37:32.788Z,33.40
2023-04-08T07:39:59.498Z,32.40
2023-04-08T07:42:26.807Z,31.47
2023-04-08T07:44:53.572Z,32.20
2023-04-08T07:47:20.402Z,32.13
2023-04-08T07:49:48.242Z,33.20
2023-04-08T07:52:15.070Z,33.03
2023-04-08T07:54:42.042Z,30.67
2023-04-08T07:57:08.837Z,31.27
2023-04-08T07:59:36.220Z,33.60
2023-04-08T08:02:03.389Z,33.10
2023-04-08T08:04:30.470Z,31.30
2023-04-08T08:06:57.290Z,31.67
2023-04-08T08:09:24.035Z,33.70
2023-04-08T08:11:50.820Z,32.63
2023-04-08T08:14:17.586Z,33.03
2023-04-08T08:16:44.719Z,32.27
2023-04-08T08:19:12.449Z,30.90
2023-04-08T08:21:39.693Z,32.03
2023-04-08T08:24:06.955Z,32.93
2023-04-08T08:26:37.215Z,30.80
2023-04-08T08:29:05.000Z,31.43
2023-04-08T08:31:33.099Z,31.13
2023-04-08T08:33:59.894Z,30.70
2023-04-08T08:36:29.591Z,28.77
2023-04-08T08:38:56.454Z,30.10
2023-04-08T08:41:23.334Z,30.53
2023-04-08T08:43:50.566Z,30.20
2023-04-08T08:46:19.335Z,30.43
2023-04-08T08:48:46.597Z,28.43
2023-04-08T08:51:14.929Z,27.07
2023-04-08T08:53:45.644Z,27.73
2023-04-08T08:58:42.542Z,26.43
2023-04-08T09:01:31.901Z,27.40
2023-04-08T09:04:16.497Z,27.00
2023-04-08T09:06:44.817Z,25.63
2023-04-08T09:09:11.712Z,26.50
2023-04-08T09:11:43.804Z,29.63
2023-04-08T09:14:24.935Z,27.33
2023-04-08T09:16:52.867Z,26.87
2023-04-08T09:19:19.803Z,25.97
2023-04-08T09:21:47.611Z,27.90
2023-04-08T09:24:31.289Z,27.67
2023-04-08T09:26:58.090Z,27.80
2023-04-08T09:29:27.632Z,28.03
2023-04-08T09:31:57.809Z,28.37
2023-04-08T09:34:26.117Z,27.17
2023-04-08T09:36:54.134Z,30.83
2023-04-08T09:39:21.072Z,29.70
2023-04-08T09:41:51.888Z,32.03
2023-04-08T09:44:21.287Z,32.30
2023-04-08T09:46:51.492Z,32.30
2023-04-08T09:49:38.221Z,34.73
2023-04-08T09:52:16.950Z,38.10
2023-04-08T09:55:05.220Z,36.37
2023-04-08T09:57:56.603Z,36.40
2023-04-08T10:00:28.804Z,38.17
2023-04-08T10:03:03.526Z,40.20
2023-04-08T10:05:31.555Z,37.43
2023-04-08T10:07:58.599Z,35.60
2023-04-08T10:10:26.293Z,35.10
2023-04-08T10:12:53.314Z,35.00
2023-04-08T10:15:34.544Z,33.73
2023-04-08T10:18:06.870Z,33.30
2023-04-08T10:20:36.639Z,32.80
2023-04-08T10:23:04.557Z,30.40
2023-04-08T10:25:33.185Z,30.23
2023-04-08T10:28:19.908Z,28.77
2023-04-08T10:30:47.212Z,27.20
2023-04-08T10:33:23.479Z,25.40
2023-04-08T10:36:11.640Z,26.53
2023-04-08T10:38:42.773Z,24.40
2023-04-08T10:41:21.423Z,23.33
2023-04-08T10:43:48.289Z,25.00
2023-04-08T10:46:15.149Z,22.93
2023-04-08T10:48:41.968Z,25.43
2023-04-08T10:51:08.680Z,23.97
2023-04-08T10:53:39.738Z,25.30
2023-04-08T10:56:13.189Z,26.20
2023-04-08T10:58:51.193Z,25.60
2023-04-08T11:01:18.509Z,26.27
2023-04-08T11:03:45.865Z,27.40
2023-04-08T11:06:12.824Z,27.43
2023-04-08T11:08:39.705Z,26.80
2023-04-08T11:11:09.374Z,25.10
2023-04-08T11:13:42.936Z,25.70
2023-04-08T11:16:18.456Z,26.87
2023-04-08T11:18:46.205Z,27.93
2023-04-08T11:21:12.985Z,30.13
2023-04-08T11:23:39.859Z,28.20
2023-04-08T11:26:06.951Z,29.60
2023-04-08T11:28:35.485Z,27.20
2023-04-08T11:31:05.897Z,27.77
2023-04-08T11:33:33.365Z,27.20
2023-04-08T11:36:03.942Z,29.57
2023-04-08T11:38:30.735Z,28.57
2023-04-08T11:40:59.426Z,28.40
2023-04-08T11:43:26.704Z,26.73
2023-04-08T11:45:53.431Z,28.40
2023-04-08T11:48:20.327Z,25.10
2023-04-08T11:50:47.121Z,26.63
2023-04-08T11:53:26.235Z,28.00
2023-04-08T11:55:53.018Z,29.30
2023-04-08T11:58:19.716Z,27.57
2023-04-08T12:00:46.381Z,26.97
2023-04-08T12:03:13.801Z,26.00
2023-04-08T12:05:41.374Z,28.00
2023-04-08T12:08:08.125Z,27.90
2023-04-08T12:10:34.905Z,26.67
2023-04-08T12:13:01.687Z,27.57
2023-04-08T12:15:28.580Z,26.33
2023-04-08T12:17:55.840Z,26.67
2023-04-08T12:20:22.669Z,25.13
2023-04-08T12:22:49.398Z,25.53
2023-04-08T12:25:16.176Z,24.97
2023-04-08T12:27:43.272Z,23.97
2023-04-08T12:30:10.660Z,24.07
2023-04-08T12:32:37.516Z,24.97
2023-04-08T12:35:04.516Z,25.00
2023-04-08T12:37:33.186Z,24.43
2023-04-08T12:39:59.936Z,25.60
2023-04-08T12:42:27.999Z,26.30
2023-04-08T12:44:54.736Z,24.67
2023-04-08T12:47:22.265Z,26.83
2023-04-08T12:49:50.608Z,26.43
2023-04-08T12:52:18.630Z,24.23
2023-04-08T12:54:45.553Z,25.60
2023-04-08T12:57:12.558Z,25.70
2023-04-08T12:59:40.115Z,27.70
2023-04-08T13:02:07.879Z,26.83
2023-04-08T13:04:35.091Z,27.23
2023-04-08T13:07:02.283Z,26.90
2023-04-08T13:09:30.554Z,25.77
2023-04-08T13:11:58.234Z,26.10
2023-04-08T13:14:25.147Z,26.47
2023-04-08T13:16:52.152Z,25.80
2023-04-08T13:19:18.996Z,26.27
2023-04-08T13:21:46.321Z,25.43
2023-04-08T13:24:13.280Z,26.07
2023-04-08T13:26:40.309Z,26.10
2023-04-08T13:29:07.263Z,25.10
2023-04-08T13:31:34.083Z,24.40
2023-04-08T13:34:00.982Z,24.97
2023-04-08T13:36:28.865Z,21.77
2023-04-08T13:38:56.561Z,18.27
2023-04-08T13:41:23.467Z,17.43
2023-04-08T13:43:50.467Z,16.90
2023-04-08T13:46:18.044Z,17.73
2023-04-08T13:48:45.071Z,16.60
2023-04-08T13:51:11.811Z,13.67
2023-04-08T13:53:38.501Z,13.20
2023-04-08T13:56:05.415Z,13.90
2023-04-08T13:58:32.233Z,13.70
2023-04-08T14:00:59.006Z,12.33
2023-04-08T14:03:26.408Z,11.37
2023-04-08T14:05:53.860Z,9.57
2023-04-08T14:08:25.286Z,8.80
2023-04-08T14:10:56.327Z,7.07
2023-04-08T14:13:23.389Z,7.43
2023-04-08T14:15:50.119Z,4.60
2023-04-08T14:18:19.604Z,4.83
2023-04-08T14:20:46.444Z,5.03
2023-04-08T14:23:13.681Z,6.63
2023-04-08T14:25:40.888Z,7.33
2023-04-08T14:28:07.998Z,6.90
2023-04-08T14:30:36.051Z,7.77
2023-04-08T14:33:05.110Z,9.20
2023-04-08T14:35:32.028Z,10.93
2023-04-08T14:37:59.142Z,14.70
2023-04-08T14:40:26.032Z,10.60
2023-04-08T14:42:52.753Z,8.97
2023-04-08T14:45:19.527Z,7.43
2023-04-08T14:47:46.657Z,7.17
2023-04-08T14:50:13.495Z,5.40
2023-04-08T14:52:40.678Z,5.50
2023-04-08T14:55:07.792Z,5.60
2023-04-08T14:57:34.477Z,5.37
2023-04-08T15:00:01.877Z,5.43
2023-04-08T15:02:28.637Z,5.33
2023-04-08T15:04:55.541Z,6.63
2023-04-08T15:07:22.711Z,5.90
2023-04-08T15:09:49.537Z,5.90
2023-04-08T15:12:16.633Z,6.70
2023-04-08T15:14:43.375Z,8.17
2023-04-08T15:17:10.348Z,6.13
2023-04-08T15:19:37.082Z,7.53
2023-04-08T15:22:03.956Z,6.90
2023-04-08T15:24:30.719Z,7.73
2023-04-08T15:26:57.556Z,7.13
2023-04-08T15:29:24.685Z,6.93
2023-04-08T15:31:52.548Z,8.97
2023-04-08T15:34:19.316Z,8.37
2023-04-08T15:36:47.391Z,7.80
2023-04-08T15:39:14.178Z,8.10
2023-04-08T15:41:41.478Z,9.60
2023-04-08T15:44:08.244Z,10.50
2023-04-08T15:46:37.283Z,12.07
2023-04-08T15:49:04.626Z,13.50
2023-04-08T15:51:32.256Z,15.50
2023-04-08T15:53:59.200Z,15.60
2023-04-08T15:56:27.219Z,16.67
2023-04-08T15:58:54.270Z,17.20
2023-04-08T16:01:21.399Z,17.20
2023-04-08T16:03:48.648Z,17.33
2023-04-08T16:06:15.630Z,18.60
2023-04-08T16:08:43.711Z,20.17
2023-04-08T16:11:10.494Z,19.33
2023-04-08T16:13:39.187Z,20.07
2023-04-08T16:16:06.062Z,20.87
2023-04-08T16:18:32.909Z,20.53
2023-04-08T16:20:59.930Z,18.60
2023-04-08T16:23:26.640Z,18.77
2023-04-08T16:25:53.446Z,19.23
2023-04-08T16:28:20.445Z,20.53
2023-04-08T16:30:47.913Z,19.37
2023-04-08T16:33:14.899Z,18.20
2023-04-08T16:35:41.796Z,25.33
2023-04-08T16:38:08.550Z,25.93
2023-04-08T16:40:35.544Z,16.43
2023-04-08T16:43:04.264Z,18.13
2023-04-08T16:45:32.502Z,19.87
2023-04-08T16:48:00.407Z,15.97
2023-04-08T16:50:28.378Z,16.90
2023-04-08T16:52:55.478Z,16.50
2023-04-08T16:55:22.285Z,16.33
2023-04-08T16:57:49.095Z,17.50
2023-04-08T17:00:18.619Z,17.27
2023-04-08T17:02:47.464Z,18.90
2023-04-08T17:05:14.503Z,16.50
2023-04-08T17:07:41.763Z,22.17
2023-04-08T17:10:09.164Z,19.77
2023-04-08T17:12:36.421Z,17.10
2023-04-08T17:15:03.798Z,24.30
2023-04-08T17:17:30.964Z,20.40
2023-04-08T17:19:58.218Z,17.90
2023-04-08T17:22:25.162Z,17.70
2023-04-08T17:24:51.973Z,15.80
2023-04-08T17:27:18.774Z,17.17
2023-04-08T17:29:45.455Z,16.43
2023-04-08T17:32:12.640Z,15.67
2023-04-08T17:34:40.735Z,16.33
2023-04-08T17:37:08.193Z,15.77
2023-04-08T17:39:40.528Z,16.67
2023-04-08T17:42:08.273Z,22.80
2023-04-08T17:44:35.433Z,34.00
2023-04-08T17:47:03.035Z,35.77
2023-04-08T17:49:30.170Z,44.20
2023-04-08T17:51:56.878Z,45.80
2023-04-08T17:54:24.947Z,37.53
2023-04-08T17:56:51.799Z,22.10
2023-04-08T17:59:18.483Z,33.60
2023-04-08T18:01:45.651Z,44.10
2023-04-08T18:04:13.706Z,31.00
2023-04-08T18:06:40.610Z,21.60
2023-04-08T18:09:07.294Z,16.90
2023-04-08T18:11:34.028Z,21.20
2023-04-08T18:14:00.729Z,21.97
2023-04-08T18:16:27.472Z,33.30
2023-04-08T18:18:54.261Z,64.13
2023-04-08T18:21:22.088Z,92.80
2023-04-08T18:23:50.207Z,86.90
2023-04-08T18:26:17.317Z,48.40
2023-04-08T18:28:44.283Z,29.40
2023-04-08T18:31:11.181Z,45.63
2023-04-08T18:33:39.268Z,39.53
2023-04-08T18:36:08.047Z,42.00
2023-04-08T18:38:36.259Z,21.77
2023-04-08T18:41:06.418Z,30.53
2023-04-08T18:43:33.651Z,21.13
2023-04-08T18:46:00.505Z,25.87
2023-04-08T18:48:27.448Z,24.90
2023-04-08T18:50:54.367Z,24.30
2023-04-08T18:53:21.900Z,33.57
2023-04-08T18:55:48.597Z,22.07
2023-04-08T18:58:15.355Z,23.60
2023-04-08T19:00:43.627Z,19.80
2023-04-08T19:03:11.000Z,30.87
2023-04-08T19:05:38.162Z,27.43
2023-04-08T19:08:05.470Z,23.83
2023-04-08T19:10:33.573Z,28.83
2023-04-08T19:13:01.077Z,19.47
2023-04-08T19:15:30.987Z,21.00
2023-04-08T19:17:59.035Z,17.63
2023-04-08T19:20:27.198Z,17.93
2023-04-08T19:22:54.022Z,20.63
2023-04-08T19:25:20.893Z,21.63
2023-04-08T19:27:47.697Z,20.20
2023-04-08T19:30:14.613Z,25.17
2023-04-08T19:32:42.741Z,21.00
2023-04-08T19:35:12.265Z,21.20
2023-04-08T19:37:38.997Z,21.80
2023-04-08T19:40:07.594Z,23.13
2023-04-08T19:42:34.311Z,23.80
2023-04-08T19:45:01.227Z,30.73
2023-04-08T19:47:28.230Z,34.00
2023-04-08T19:49:55.177Z,39.37
2023-04-08T19:52:22.166Z,37.17
2023-04-08T19:54:52.229Z,42.40
2023-04-08T19:57:19.883Z,38.30
2023-04-08T19:59:48.642Z,36.63
2023-04-08T20:02:15.689Z,39.37
2023-04-08T20:04:42.727Z,42.40
2023-04-08T20:07:09.625Z,49.50
2023-04-08T20:09:36.436Z,50.97
2023-04-08T20:12:06.368Z,41.20
2023-04-08T20:14:35.521Z,35.20
2023-04-08T20:17:02.698Z,33.73
2023-04-08T20:19:29.545Z,30.57
2023-04-08T20:21:57.362Z,35.00
2023-04-08T20:24:24.307Z,25.20
2023-04-08T20:26:52.365Z,31.93
2023-04-08T20:29:19.392Z,31.90
2023-04-08T20:31:46.440Z,33.57
2023-04-08T20:34:13.272Z,26.73
2023-04-08T20:36:40.122Z,31.77
2023-04-08T20:39:10.724Z,33.73
2023-04-08T20:41:37.758Z,31.50
2023-04-08T20:44:09.654Z,29.33
2023-04-08T20:46:37.698Z,29.50
2023-04-08T20:49:05.558Z,25.53
2023-04-08T20:51:33.763Z,26.70
2023-04-08T20:54:00.742Z,25.23
2023-04-08T20:56:27.545Z,32.67
2023-04-08T20:58:54.496Z,31.63
2023-04-08T21:01:22.046Z,29.30
2023-04-08T21:03:49.315Z,22.47
2023-04-08T21:06:20.402Z,23.43
2023-04-08T21:08:47.559Z,24.10
2023-04-08T21:11:14.875Z,24.17
2023-04-08T21:13:41.880Z,22.83
2023-04-08T21:16:09.162Z,21.87
2023-04-08T21:18:39.550Z,23.33
2023-04-08T21:21:06.361Z,23.03
2023-04-08T21:23:33.081Z,24.70
2023-04-08T21:26:01.938Z,26.53
2023-04-08T21:28:29.960Z,26.57
2023-04-08T21:30:57.283Z,24.03
2023-04-08T21:33:23.921Z,24.23
2023-04-08T21:35:50.730Z,24.87
2023-04-08T21:38:17.416Z,27.23
2023-04-08T21:40:44.161Z,24.57
2023-04-08T21:43:10.869Z,25.70
2023-04-08T21:45:37.617Z,26.17
2023-04-08T21:48:04.544Z,24.93
2023-04-08T21:50:32.371Z,31.07
2023-04-08T21:52:59.170Z,27.10
2023-04-08T21:55:26.005Z,29.30
2023-04-08T21:57:52.750Z,27.43
2023-04-08T22:00:19.458Z,25.83
2023-04-08T22:02:46.477Z,26.50
2023-04-08T22:05:13.526Z,31.40
2023-04-08T22:07:40.275Z,33.40
2023-04-08T22:10:07.764Z,30.63
2023-04-08T22:12:34.426Z,30.07
2023-04-08T22:15:01.204Z,30.13
2023-04-08T22:17:28.018Z,26.73
2023-04-08T22:19:54.883Z,28.87
2023-04-08T22:22:21.662Z,31.97
2023-04-08T22:24:48.363Z,30.07
2023-04-08T22:27:15.075Z,28.37
2023-04-08T22:29:41.774Z,25.10
2023-04-08T22:32:08.532Z,27.90
2023-04-08T22:34:36.184Z,26.37
2023-04-08T22:37:03.002Z,29.03
2023-04-08T22:39:29.872Z,29.97
2023-04-08T22:41:57.399Z,27.30
2023-04-08T22:44:24.131Z,26.63
2023-04-08T22:46:51.634Z,27.23
2023-04-08T22:49:18.389Z,27.23
2023-04-08T22:51:45.244Z,27.50
2023-04-08T22:54:12.021Z,26.57
2023-04-08T22:56:38.739Z,25.27
2023-04-08T22:59:05.568Z,25.40
2023-04-08T23:01:32.569Z,25.17
2023-04-08T23:03:59.440Z,24.93
2023-04-08T23:06:27.375Z,26.47
2023-04-08T23:08:54.200Z,27.37
2023-04-08T23:11:21.330Z,27.90
2023-04-08T23:13:48.133Z,26.43
2023-04-08T23:16:14.948Z,27.53
2023-04-08T23:18:41.663Z,28.13
2023-04-08T23:21:08.351Z,26.87
2023-04-08T23:23:35.116Z,26.20
2023-04-08T23:26:01.802Z,27.07
2023-04-08T23:28:28.562Z,26.47
2023-04-08T23:30:55.346Z,26.70
2023-04-08T23:33:22.082Z,26.90
2023-04-08T23:35:48.834Z,25.70
2023-04-08T23:38:15.972Z,26.50
2023-04-08T23:40:42.688Z,27.00
2023-04-08T23:43:09.583Z,27.53
2023-04-08T23:45:36.284Z,26.87
2023-04-08T23:48:03.095Z,27.40
2023-04-08T23:50:30.056Z,25.90
2023-04-08T23:52:56.857Z,27.00
2023-04-08T23:55:23.619Z,27.17
2023-04-08T23:57:50.916Z,27.47
